createdAt,value
2022-08-08T00:00:51.092Z,95365.31
2022-08-08T00:02:43.208Z,95365.06
2022-08-08T00:06:00.879Z,95362.13
2022-08-08T00:08:38.931Z,95355.19
2022-08-08T00:11:23.461Z,95360.84
2022-08-08T00:14:16.754Z,95351.44
2022-08-08T00:17:22.472Z,95351.44
2022-08-08T00:20:14.606Z,95359.97
2022-08-08T00:22:50.236Z,95353.03
2022-08-08T00:25:28.714Z,95355.72
2022-08-08T00:28:35.803Z,95366.97
2022-08-08T00:32:28.683Z,95356.22
2022-08-08T00:34:27.035Z,95359.19
2022-08-08T00:37:08.168Z,95352.75
2022-08-08T00:41:10.512Z,95352.81
2022-08-08T00:43:11.789Z,95347.19
2022-08-08T00:46:16.401Z,95343.94
2022-08-08T00:48:59.290Z,95349.31
2022-08-08T00:51:45.826Z,95345.84
2022-08-08T00:54:37.182Z,95344.22
2022-08-08T00:57:29.480Z,95333.50
2022-08-08T01:00:04.831Z,95353.03
2022-08-08T01:04:01.425Z,95334.59
2022-08-08T01:06:31.557Z,95331.59
2022-08-08T01:09:36.783Z,95335.59
2022-08-08T01:12:12.314Z,95327.34
2022-08-08T01:14:57.318Z,95327.88
2022-08-08T01:18:02.617Z,95326.81
2022-08-08T01:21:03.061Z,95326.81
2022-08-08T01:24:06.096Z,95324.66
2022-08-08T01:27:10.813Z,95346.84
2022-08-08T01:30:01.637Z,95347.66
2022-08-08T01:33:16.334Z,95336.94
2022-08-08T01:36:14.470Z,95346.28
2022-08-08T01:39:06.568Z,95338.56
2022-08-08T01:41:46.323Z,95333.47
2022-08-08T01:44:34.624Z,95340.94
2022-08-08T01:48:16.781Z,95346.56
2022-08-08T01:50:00.312Z,95347.38
2022-08-08T01:53:03.547Z,95340.66
2022-08-08T01:56:31.118Z,95343.63
2022-08-08T01:58:55.185Z,95353.97
2022-08-08T02:01:59.555Z,95354.25
2022-08-08T02:05:00.427Z,95360.09
2022-08-08T02:07:50.012Z,95359.28
2022-08-08T02:10:46.017Z,95368.69
2022-08-08T02:13:52.615Z,95374.00
2022-08-08T02:16:25.055Z,95357.69
2022-08-08T02:19:26.916Z,95357.94
2022-08-08T02:22:12.297Z,95360.38
2022-08-08T02:24:52.074Z,95361.44
2022-08-08T02:27:42.352Z,95358.78
2022-08-08T02:30:24.687Z,95353.72
2022-08-08T02:33:41.490Z,95357.22
2022-08-08T02:36:57.180Z,95350.75
2022-08-08T02:39:40.795Z,95352.34
2022-08-08T02:42:15.190Z,95349.91
2022-08-08T02:45:21.538Z,95342.88
2022-08-08T02:48:06.768Z,95345.66
2022-08-08T02:50:55.620Z,95340.84
2022-08-08T02:53:25.566Z,95341.66
2022-08-08T02:56:04.322Z,95340.81
2022-08-08T02:58:30.888Z,95350.13
2022-08-08T03:00:57.537Z,95340.72
2022-08-08T03:05:01.608Z,95343.75
2022-08-08T03:06:50.530Z,95346.06
2022-08-08T03:09:54.017Z,95335.38
2022-08-08T03:13:01.186Z,95355.19
2022-08-08T03:16:03.869Z,95346.47
2022-08-08T03:18:57.443Z,95351.53
2022-08-08T03:21:26.885Z,95348.50
2022-08-08T03:24:07.568Z,95349.59
2022-08-08T03:26:43.115Z,95357.03
2022-08-08T03:29:27.030Z,95352.25
2022-08-08T03:32:08.802Z,95359.97
2022-08-08T03:34:39.924Z,95364.47
2022-08-08T03:37:59.629Z,95366.34
2022-08-08T03:40:02.419Z,95367.94
2022-08-08T03:42:31.399Z,95367.66
2022-08-08T03:44:58.778Z,95367.63
2022-08-08T03:47:25.557Z,95368.22
2022-08-08T03:50:20.017Z,95367.38
2022-08-08T03:52:51.685Z,95358.31
2022-08-08T03:55:56.022Z,95361.78
2022-08-08T03:58:34.082Z,95367.16
2022-08-08T04:01:20.568Z,95361.22
2022-08-08T04:03:59.210Z,95367.22
2022-08-08T04:06:29.873Z,95372.00
2022-08-08T04:08:58.787Z,95362.94
2022-08-08T04:11:58.481Z,95360.22
2022-08-08T04:14:44.963Z,95357.41
2022-08-08T04:17:22.557Z,95360.94
2022-08-08T04:19:59.653Z,95367.59
2022-08-08T04:22:29.850Z,95364.63
2022-08-08T04:24:57.400Z,95371.00
2022-08-08T04:28:02.417Z,95367.00
2022-08-08T04:30:17.374Z,95365.75
2022-08-08T04:32:48.124Z,95378.25
2022-08-08T04:35:22.350Z,95370.88
2022-08-08T04:37:49.656Z,95382.69
2022-08-08T04:40:19.074Z,95374.94
2022-08-08T04:42:57.020Z,95367.97
2022-08-08T04:45:27.922Z,95374.34
2022-08-08T04:47:55.244Z,95377.06
2022-08-08T04:50:25.436Z,95382.97
2022-08-08T04:53:01.058Z,95379.47
2022-08-08T04:55:47.561Z,95375.50
2022-08-08T04:58:18.547Z,95383.00
2022-08-08T05:00:47.695Z,95389.19
2022-08-08T05:03:19.160Z,95381.47
2022-08-08T05:06:12.996Z,95384.72
2022-08-08T05:08:51.382Z,95392.69
2022-08-08T05:11:23.881Z,95389.00
2022-08-08T05:13:57.859Z,95385.44
2022-08-08T05:16:51.150Z,95388.19
2022-08-08T05:20:09.841Z,95396.47
2022-08-08T05:22:08.132Z,95397.03
2022-08-08T05:24:37.466Z,95397.56
2022-08-08T05:27:05.458Z,95394.56
2022-08-08T05:29:32.173Z,95393.81
2022-08-08T05:32:06.475Z,95398.63
2022-08-08T05:34:44.362Z,95404.00
2022-08-08T05:37:18.859Z,95397.56
2022-08-08T05:39:50.986Z,95410.97
2022-08-08T05:42:19.598Z,95410.41
2022-08-08T05:44:57.357Z,95406.69
2022-08-08T05:47:41.774Z,95413.09
2022-08-08T05:50:18.364Z,95414.69
2022-08-08T05:52:45.030Z,95408.25
2022-08-08T05:55:14.583Z,95415.47
2022-08-08T05:58:04.580Z,95414.69
2022-08-08T06:00:34.054Z,95417.09
2022-08-08T06:03:02.676Z,95422.19
2022-08-08T06:05:34.225Z,95419.25
2022-08-08T06:08:10.537Z,95426.75
2022-08-08T06:10:53.797Z,95429.16
2022-08-08T06:13:23.590Z,95426.47
2022-08-08T06:15:53.775Z,95443.09
2022-08-08T06:18:24.320Z,95434.91
2022-08-08T06:21:03.648Z,95444.63
2022-08-08T06:23:52.735Z,95440.19
2022-08-08T06:26:38.327Z,95436.66
2022-08-08T06:29:48.824Z,95438.75
2022-08-08T06:32:15.282Z,95444.50
2022-08-08T06:34:52.473Z,95439.09
2022-08-08T06:37:45.377Z,95438.19
2022-08-08T06:40:20.748Z,95437.34
2022-08-08T06:43:09.567Z,95439.84
2022-08-08T06:45:38.976Z,95444.69
2022-08-08T06:48:06.161Z,95441.75
2022-08-08T06:50:38.446Z,95451.94
2022-08-08T06:53:09.585Z,95436.13
2022-08-08T06:55:42.162Z,95453.31
2022-08-08T06:58:10.398Z,95455.69
2022-08-08T07:00:40.981Z,95455.38
2022-08-08T07:04:35.954Z,95454.81
2022-08-08T07:06:19.175Z,95461.09
2022-08-08T07:08:49.672Z,95459.91
2022-08-08T07:11:22.052Z,95450.94
2022-08-08T07:14:01.176Z,95462.81
2022-08-08T07:16:56.270Z,95472.69
2022-08-08T07:19:40.179Z,95471.03
2022-08-08T07:22:11.848Z,95470.13
2022-08-08T07:24:58.658Z,95467.81
2022-08-08T07:27:35.427Z,95469.97
2022-08-08T07:30:21.275Z,95463.53
2022-08-08T07:32:53.391Z,95468.75
2022-08-08T07:35:21.745Z,95470.63
2022-08-08T07:38:04.861Z,95468.59
2022-08-08T07:40:38.330Z,95479.22
2022-08-08T07:43:09.359Z,95476.06
2022-08-08T07:46:05.319Z,95482.03
2022-08-08T07:48:25.626Z,95472.97
2022-08-08T07:50:59.415Z,95472.91
2022-08-08T07:54:00.793Z,95464.91
2022-08-08T07:56:36.220Z,95474.00
2022-08-08T07:59:14.245Z,95481.34
2022-08-08T08:02:35.200Z,95462.75
2022-08-08T08:04:46.651Z,95467.78
2022-08-08T08:07:17.130Z,95455.16
2022-08-08T08:09:44.502Z,95468.88
2022-08-08T08:12:31.660Z,95470.22
2022-08-08T08:15:09.462Z,95476.25
2022-08-08T08:17:48.859Z,95478.34
2022-08-08T08:20:18.740Z,95471.50
2022-08-08T08:22:47.415Z,95478.56
2022-08-08T08:25:16.919Z,95471.13
2022-08-08T08:27:47.302Z,95474.59
2022-08-08T08:30:14.508Z,95476.47
2022-08-08T08:32:51.517Z,95485.69
2022-08-08T08:35:21.482Z,95479.88
2022-08-08T08:38:16.193Z,95488.56
2022-08-08T08:40:43.957Z,95481.25
2022-08-08T08:43:18.698Z,95469.13
2022-08-08T08:45:47.744Z,95468.63
2022-08-08T08:48:19.943Z,95483.28
2022-08-08T08:50:51.935Z,95476.16
2022-08-08T08:53:28.042Z,95484.72
2022-08-08T08:56:07.807Z,95468.09
2022-08-08T08:58:50.409Z,95470.31
2022-08-08T09:01:22.965Z,95466.69
2022-08-08T09:03:51.408Z,95456.91
2022-08-08T09:06:34.326Z,95463.97
2022-08-08T09:09:35.544Z,95464.47
2022-08-08T09:12:10.993Z,95467.72
2022-08-08T09:14:42.882Z,95465.19
2022-08-08T09:17:17.940Z,95454.28
2022-08-08T09:21:56.135Z,95460.44
2022-08-08T09:22:35.088Z,95459.31
2022-08-08T09:25:04.522Z,95468.16
2022-08-08T09:27:56.255Z,95463.41
2022-08-08T09:30:19.960Z,95463.56
2022-08-08T09:33:12.775Z,95460.69
2022-08-08T09:35:49.863Z,95456.84
2022-08-08T09:38:53.772Z,95465.94
2022-08-08T09:41:33.354Z,95467.22
2022-08-08T09:44:29.796Z,95462.75
2022-08-08T09:47:26.539Z,95461.09
2022-08-08T09:49:58.915Z,95459.78
2022-08-08T09:52:56.146Z,95464.28
2022-08-08T09:55:51.350Z,95470.00
2022-08-08T09:58:25.926Z,95453.72
2022-08-08T10:01:03.246Z,95455.69
2022-08-08T10:03:46.090Z,95456.06
2022-08-08T10:06:26.874Z,95453.03
2022-08-08T10:08:57.336Z,95459.97
2022-08-08T10:12:23.169Z,95447.38
2022-08-08T10:14:35.239Z,95455.38
2022-08-08T10:16:59.082Z,95451.19
2022-08-08T10:19:46.170Z,95447.97
2022-08-08T10:22:25.974Z,95452.03
2022-08-08T10:25:06.556Z,95449.59
2022-08-08T10:27:43.391Z,95439.63
2022-08-08T10:30:16.712Z,95442.81
2022-08-08T10:33:00.849Z,95440.34
2022-08-08T10:36:08.010Z,95449.69
2022-08-08T10:38:20.161Z,95457.06
2022-08-08T10:40:51.783Z,95440.25
2022-08-08T10:43:18.763Z,95434.94
2022-08-08T10:45:56.618Z,95432.94
2022-08-08T10:48:57.476Z,95437.75
2022-08-08T10:51:24.149Z,95431.00
2022-08-08T10:53:58.927Z,95438.88
2022-08-08T10:56:34.883Z,95431.06
2022-08-08T10:59:07.099Z,95433.69
2022-08-08T11:01:36.526Z,95433.06
2022-08-08T11:04:08.463Z,95426.22
2022-08-08T11:06:41.770Z,95424.41
2022-08-08T11:09:20.189Z,95423.91
2022-08-08T11:12:06.408Z,95427.75
2022-08-08T11:14:55.587Z,95426.69
2022-08-08T11:17:59.489Z,95427.63
2022-08-08T11:20:24.975Z,95423.00
2022-08-08T11:22:56.911Z,95420.94
2022-08-08T11:25:53.000Z,95423.88
2022-08-08T11:28:25.779Z,95419.16
2022-08-08T11:30:56.418Z,95417.59
2022-08-08T11:33:52.978Z,95421.69
2022-08-08T11:36:13.283Z,95408.66
2022-08-08T11:38:54.234Z,95408.41
2022-08-08T11:41:33.561Z,95406.59
2022-08-08T11:44:01.670Z,95413.91
2022-08-08T11:46:31.484Z,95408.19
2022-08-08T11:49:04.043Z,95410.53
2022-08-08T11:51:40.483Z,95400.78
2022-08-08T11:54:32.328Z,95416.72
2022-08-08T11:57:13.943Z,95405.44
2022-08-08T12:00:06.288Z,95410.06
2022-08-08T12:02:51.054Z,95407.19
2022-08-08T12:05:18.744Z,95401.81
2022-08-08T12:07:56.722Z,95392.91
2022-08-08T12:10:26.574Z,95401.19
2022-08-08T12:13:09.520Z,95395.44
2022-08-08T12:15:46.755Z,95393.84
2022-08-08T12:18:16.083Z,95386.94
2022-08-08T12:20:48.406Z,95393.22
2022-08-08T12:23:30.600Z,95386.66
2022-08-08T12:26:16.759Z,95379.81
2022-08-08T12:28:54.491Z,95390.97
2022-08-08T12:31:30.458Z,95379.31
2022-08-08T12:34:06.260Z,95388.25
2022-08-08T12:36:46.336Z,95376.16
2022-08-08T12:39:13.448Z,95376.94
2022-08-08T12:41:57.543Z,95383.16
2022-08-08T12:44:48.235Z,95381.09
2022-08-08T12:47:57.855Z,95388.94
2022-08-08T12:50:15.074Z,95386.84
2022-08-08T12:52:52.475Z,95376.16
2022-08-08T12:55:35.412Z,95379.34
2022-08-08T12:58:09.973Z,95384.25
2022-08-08T13:00:42.658Z,95371.94
2022-08-08T13:03:22.542Z,95374.78
2022-08-08T13:06:04.031Z,95382.19
2022-08-08T13:08:53.425Z,95379.78
2022-08-08T13:12:24.568Z,95380.44
2022-08-08T13:14:19.901Z,95389.06
2022-08-08T13:16:49.362Z,95375.50
2022-08-08T13:19:17.907Z,95375.09
2022-08-08T13:21:53.376Z,95376.56
2022-08-08T13:24:42.384Z,95372.13
2022-08-08T13:27:17.338Z,95371.66
2022-08-08T13:29:52.801Z,95373.59
2022-08-08T13:32:25.293Z,95374.06
2022-08-08T13:34:57.644Z,95378.50
2022-08-08T13:37:52.227Z,95385.28
2022-08-08T13:40:17.430Z,95380.50
2022-08-08T13:42:53.713Z,95372.06
2022-08-08T13:45:23.995Z,95376.84
2022-08-08T13:48:03.030Z,95376.75
2022-08-08T13:50:49.324Z,95360.91
2022-08-08T13:53:31.408Z,95368.84
2022-08-08T13:56:02.939Z,95368.03
2022-08-08T13:58:30.490Z,95367.56
2022-08-08T14:00:57.727Z,95368.16
2022-08-08T14:03:52.486Z,95362.22
2022-08-08T14:06:44.803Z,95375.81
2022-08-08T14:09:24.339Z,95374.19
2022-08-08T14:11:58.886Z,95355.66
2022-08-08T14:14:44.336Z,95367.19
2022-08-08T14:17:36.333Z,95354.53
2022-08-08T14:20:06.826Z,95365.19
2022-08-08T14:22:42.969Z,95362.91
2022-08-08T14:25:15.527Z,95359.50
2022-08-08T14:27:59.963Z,95361.59
2022-08-08T14:30:34.555Z,95356.22
2022-08-08T14:33:01.824Z,95358.03
2022-08-08T14:35:35.632Z,95348.66
2022-08-08T14:38:34.723Z,95355.78
2022-08-08T14:40:58.819Z,95349.06
2022-08-08T14:44:02.702Z,95347.44
2022-08-08T14:46:15.714Z,95355.09
2022-08-08T14:48:56.934Z,95351.91
2022-08-08T14:51:47.312Z,95355.06
2022-08-08T14:54:14.095Z,95359.38
2022-08-08T14:56:48.457Z,95354.28
2022-08-08T14:59:22.162Z,95347.97
2022-08-08T15:01:58.660Z,95333.81
2022-08-08T15:04:26.417Z,95348.78
2022-08-08T15:06:53.207Z,95338.91
2022-08-08T15:09:19.857Z,95337.97
2022-08-08T15:11:53.456Z,95344.13
2022-08-08T15:14:25.067Z,95335.66
2022-08-08T15:16:53.789Z,95328.53
2022-08-08T15:19:21.268Z,95336.59
2022-08-08T15:21:50.539Z,95342.63
2022-08-08T15:24:17.179Z,95333.56
2022-08-08T15:26:52.629Z,95340.25
2022-08-08T15:29:22.537Z,95339.16
2022-08-08T15:32:19.991Z,95332.13
2022-08-08T15:34:38.736Z,95321.13
2022-08-08T15:37:06.690Z,95325.41
2022-08-08T15:39:39.624Z,95327.25
2022-08-08T15:42:13.168Z,95333.84
2022-08-08T15:44:45.305Z,95324.03
2022-08-08T15:47:16.156Z,95320.75
2022-08-08T15:49:46.123Z,95317.47
2022-08-08T15:52:17.685Z,95317.84
2022-08-08T15:54:51.314Z,95319.75
2022-08-08T15:57:19.080Z,95310.03
2022-08-08T16:00:05.623Z,95311.66
2022-08-08T16:02:33.024Z,95308.94
2022-08-08T16:05:04.015Z,95310.63
2022-08-08T16:07:51.172Z,95312.31
2022-08-08T16:13:20.914Z,95308.38
2022-08-08T16:13:33.512Z,95312.69
2022-08-08T16:15:57.259Z,95321.03
2022-08-08T16:18:26.585Z,95304.31
2022-08-08T16:20:53.330Z,95306.53
2022-08-08T16:23:19.977Z,95308.44
2022-08-08T16:25:54.701Z,95308.81
2022-08-08T16:28:34.916Z,95304.16
2022-08-08T16:31:07.936Z,95304.41
2022-08-08T16:33:39.199Z,95306.53
2022-08-08T16:36:12.989Z,95307.00
2022-08-08T16:38:47.713Z,95305.63
2022-08-08T16:41:22.736Z,95304.28
2022-08-08T16:43:52.125Z,95312.84
2022-08-08T16:46:37.620Z,95310.03
2022-08-08T16:49:08.805Z,95310.69
2022-08-08T16:55:04.699Z,95305.75
2022-08-08T16:55:19.496Z,95306.88
2022-08-08T16:58:12.000Z,95297.03
2022-08-08T16:59:59.336Z,95302.38
2022-08-08T17:02:38.672Z,95303.75
2022-08-08T17:05:10.205Z,95297.44
2022-08-08T17:07:40.672Z,95298.19
2022-08-08T17:10:10.049Z,95300.81
2022-08-08T17:12:38.755Z,95303.69
2022-08-08T17:15:20.578Z,95305.91
2022-08-08T17:18:03.139Z,95305.31
2022-08-08T17:20:32.330Z,95303.09
2022-08-08T17:23:25.869Z,95298.28
2022-08-08T17:25:52.440Z,95305.47
2022-08-08T17:28:30.728Z,95309.94
2022-08-08T17:31:43.640Z,95307.56
2022-08-08T17:34:48.198Z,95323.00
2022-08-08T17:36:58.020Z,95326.84
2022-08-08T17:40:05.173Z,95318.59
2022-08-08T17:42:15.959Z,95307.41
2022-08-08T17:44:45.669Z,95327.81
2022-08-08T17:47:23.272Z,95321.75
2022-08-08T17:49:52.484Z,95322.72
2022-08-08T17:52:23.023Z,95322.22
2022-08-08T17:54:51.936Z,95334.63
2022-08-08T17:57:23.680Z,95341.94
2022-08-08T17:59:51.694Z,95327.72
2022-08-08T18:02:26.213Z,95337.81
2022-08-08T18:04:56.129Z,95331.72
2022-08-08T18:08:01.965Z,95337.91
2022-08-08T18:10:09.836Z,95341.25
2022-08-08T18:12:39.018Z,95328.66
2022-08-08T18:15:07.356Z,95337.41
2022-08-08T18:18:05.226Z,95345.00
2022-08-08T18:20:43.081Z,95348.44
2022-08-08T18:23:14.650Z,95354.25
2022-08-08T18:25:42.402Z,95348.84
2022-08-08T18:28:12.993Z,95350.13
2022-08-08T18:30:41.537Z,95346.78
2022-08-08T18:33:10.592Z,95348.88
2022-08-08T18:35:48.548Z,95338.31
2022-08-08T18:38:17.102Z,95353.31
2022-08-08T18:40:46.164Z,95359.09
2022-08-08T18:43:16.603Z,95352.84
2022-08-08T18:46:53.283Z,95366.34
2022-08-08T18:48:31.698Z,95355.28
2022-08-08T18:50:59.065Z,95357.13
2022-08-08T18:54:00.218Z,95365.34
2022-08-08T18:56:25.292Z,95353.16
2022-08-08T18:58:53.873Z,95361.78
2022-08-08T19:02:25.576Z,95367.97
2022-08-08T19:04:12.503Z,95379.41
2022-08-08T19:06:39.872Z,95374.00
2022-08-08T19:09:13.381Z,95375.53
2022-08-08T19:11:46.364Z,95368.66
2022-08-08T19:14:20.271Z,95372.16
2022-08-08T19:16:48.406Z,95382.16
2022-08-08T19:19:15.513Z,95380.66
2022-08-08T19:21:47.936Z,95381.63
2022-08-08T19:24:34.195Z,95387.63
2022-08-08T19:27:04.853Z,95380.97
2022-08-08T19:29:34.017Z,95388.66
2022-08-08T19:32:02.379Z,95393.34
2022-08-08T19:34:38.779Z,95402.03
2022-08-08T19:37:08.359Z,95391.44
2022-08-08T19:39:45.523Z,95394.38
2022-08-08T19:42:15.373Z,95402.84
2022-08-08T19:44:43.245Z,95408.66
2022-08-08T19:47:14.479Z,95402.44
2022-08-08T19:49:43.061Z,95415.25
2022-08-08T19:52:10.695Z,95416.44
2022-08-08T19:54:40.093Z,95407.94
2022-08-08T19:57:09.921Z,95414.63
2022-08-08T19:59:38.314Z,95406.13
2022-08-08T20:02:05.593Z,95410.22
2022-08-08T20:04:33.475Z,95411.19
2022-08-08T20:08:27.865Z,95414.19
2022-08-08T20:09:56.551Z,95406.69
2022-08-08T20:12:32.713Z,95416.25
2022-08-08T20:15:14.612Z,95403.84
2022-08-08T20:17:46.118Z,95408.97
2022-08-08T20:20:19.608Z,95417.13
2022-08-08T20:22:52.723Z,95403.72
2022-08-08T20:25:21.670Z,95397.44
2022-08-08T20:27:50.217Z,95403.41
2022-08-08T20:30:52.542Z,95405.09
2022-08-08T20:33:20.164Z,95404.00
2022-08-08T20:35:57.102Z,95396.06
2022-08-08T20:38:29.128Z,95406.19
2022-08-08T20:40:59.233Z,95392.72
2022-08-08T20:43:44.218Z,95399.94
2022-08-08T20:46:12.986Z,95389.44
2022-08-08T20:48:39.689Z,95382.75
2022-08-08T20:51:09.717Z,95399.22
2022-08-08T20:53:58.793Z,95391.59
2022-08-08T20:56:35.139Z,95388.09
2022-08-08T20:59:08.887Z,95391.72
2022-08-08T21:02:06.726Z,95395.50
2022-08-08T21:04:27.626Z,95398.34
2022-08-08T21:06:56.031Z,95387.25
2022-08-08T21:09:23.044Z,95408.00
2022-08-08T21:11:50.810Z,95409.09
2022-08-08T21:14:30.266Z,95401.38
2022-08-08T21:17:01.299Z,95397.47
2022-08-08T21:19:33.915Z,95404.66
2022-08-08T21:22:11.776Z,95408.38
2022-08-08T21:24:39.701Z,95409.91
2022-08-08T21:27:38.443Z,95401.81
2022-08-08T21:30:03.869Z,95401.81
2022-08-08T21:32:34.614Z,95399.19
2022-08-08T21:36:13.616Z,95412.44
2022-08-08T21:37:55.305Z,95411.34
2022-08-08T21:40:31.109Z,95405.78
2022-08-08T21:42:59.183Z,95407.63
2022-08-08T21:47:59.698Z,95420.56
2022-08-08T21:48:19.702Z,95403.97
2022-08-08T21:50:48.237Z,95404.78
2022-08-08T21:54:31.635Z,95402.03
2022-08-08T21:56:28.110Z,95416.94
2022-08-08T21:58:54.798Z,95430.16
2022-08-08T22:01:39.471Z,95414.50
2022-08-08T22:04:11.014Z,95412.53
2022-08-08T22:06:40.405Z,95412.00
2022-08-08T22:09:09.014Z,95419.56
2022-08-08T22:11:51.135Z,95419.56
2022-08-08T22:14:26.984Z,95431.22
2022-08-08T22:16:56.428Z,95422.28
2022-08-08T22:19:29.039Z,95447.13
2022-08-08T22:21:56.896Z,95431.63
2022-08-08T22:24:23.905Z,95427.53
2022-08-08T22:27:01.320Z,95421.38
2022-08-08T22:29:59.552Z,95417.06
2022-08-08T22:32:17.947Z,95414.97
2022-08-08T22:34:50.788Z,95411.81
2022-08-08T22:37:49.455Z,95417.25
2022-08-08T22:40:16.610Z,95423.75
2022-08-08T22:42:47.248Z,95414.03
2022-08-08T22:45:14.815Z,95421.69
2022-08-08T22:47:47.061Z,95416.31
2022-08-08T22:50:25.528Z,95423.97
2022-08-08T22:54:28.463Z,95425.25
2022-08-08T22:55:59.190Z,95421.75
2022-08-08T22:58:34.184Z,95422.81
2022-08-08T23:01:26.658Z,95423.72
2022-08-08T23:03:57.015Z,95428.25
2022-08-08T23:06:27.135Z,95437.97
2022-08-08T23:09:00.205Z,95420.25
2022-08-08T23:11:30.950Z,95429.34
2022-08-08T23:14:19.644Z,95433.09
2022-08-08T23:16:54.793Z,95425.31
2022-08-08T23:19:30.848Z,95433.38
2022-08-08T23:22:05.083Z,95436.38
2022-08-08T23:24:36.882Z,95434.56
2022-08-08T23:27:09.233Z,95434.88
2022-08-08T23:29:37.278Z,95436.44
2022-08-08T23:32:05.444Z,95444.88
2022-08-08T23:34:33.915Z,95427.41
2022-08-08T23:37:02.505Z,95432.28
2022-08-08T23:39:42.023Z,95429.66
2022-08-08T23:42:16.374Z,95434.97
2022-08-08T23:44:43.048Z,95425.31
2022-08-08T23:49:05.977Z,95426.59
2022-08-08T23:50:03.152Z,95429.28
2022-08-08T23:52:32.906Z,95431.72
2022-08-08T23:55:07.116Z,95426.84
2022-08-08T23:57:52.843Z,95430.44
